sensor_id;sensor_type;location;lat;lon;timestamp;P1;durP1;ratioP1;P2;durP2;ratioP2
50219;SDS011;36110;51.536;7.562;2023-05-10T00:02:23;2.53;;;2.33;;
50219;SDS011;36110;51.536;7.562;2023-05-10T00:04:52;2.55;;;2.35;;
50219;SDS011;36110;51.536;7.562;2023-05-10T00:07:17;2.40;;;2.20;;
50219;SDS011;36110;51.536;7.562;2023-05-10T00:09:43;2.72;;;2.50;;
50219;SDS011;36110;51.536;7.562;2023-05-10T00:12:08;2.47;;;2.28;;
50219;SDS011;36110;51.536;7.562;2023-05-10T00:14:34;2.72;;;2.53;;
50219;SDS011;36110;51.536;7.562;2023-05-10T00:16:59;1.90;;;1.80;;
50219;SDS011;36110;51.536;7.562;2023-05-10T00:19:24;2.53;;;2.33;;
50219;SDS011;36110;51.536;7.562;2023-05-10T00:21:50;2.55;;;2.00;;
50219;SDS011;36110;51.536;7.562;2023-05-10T00:24:15;3.90;;;1.60;;
50219;SDS011;36110;51.536;7.562;2023-05-10T00:26:40;2.42;;;2.10;;
50219;SDS011;36110;51.536;7.562;2023-05-10T00:29:07;2.40;;;2.20;;
50219;SDS011;36110;51.536;7.562;2023-05-10T00:31:32;2.60;;;2.38;;
50219;SDS011;36110;51.536;7.562;2023-05-10T00:33:57;2.35;;;2.15;;
50219;SDS011;36110;51.536;7.562;2023-05-10T00:36:23;2.40;;;2.30;;
50219;SDS011;36110;51.536;7.562;2023-05-10T00:38:48;2.20;;;2.10;;
50219;SDS011;36110;51.536;7.562;2023-05-10T00:41:13;2.17;;;2.08;;
50219;SDS011;36110;51.536;7.562;2023-05-10T00:43:39;2.50;;;2.30;;
50219;SDS011;36110;51.536;7.562;2023-05-10T00:46:04;2.65;;;2.45;;
50219;SDS011;36110;51.536;7.562;2023-05-10T00:48:30;2.55;;;2.33;;
50219;SDS011;36110;51.536;7.562;2023-05-10T00:50:55;2.75;;;2.55;;
50219;SDS011;36110;51.536;7.562;2023-05-10T00:53:20;3.42;;;2.50;;
50219;SDS011;36110;51.536;7.562;2023-05-10T00:55:46;3.22;;;2.58;;
50219;SDS011;36110;51.536;7.562;2023-05-10T00:58:11;3.17;;;2.88;;
50219;SDS011;36110;51.536;7.562;2023-05-10T01:00:37;2.42;;;2.25;;
50219;SDS011;36110;51.536;7.562;2023-05-10T01:03:03;2.47;;;2.30;;
50219;SDS011;36110;51.536;7.562;2023-05-10T01:05:28;2.60;;;2.40;;
50219;SDS011;36110;51.536;7.562;2023-05-10T01:07:54;2.38;;;2.20;;
50219;SDS011;36110;51.536;7.562;2023-05-10T01:10:19;2.95;;;2.33;;
50219;SDS011;36110;51.536;7.562;2023-05-10T01:12:45;2.22;;;2.13;;
50219;SDS011;36110;51.536;7.562;2023-05-10T01:15:11;2.35;;;2.25;;
50219;SDS011;36110;51.536;7.562;2023-05-10T01:17:38;2.00;;;1.90;;
50219;SDS011;36110;51.536;7.562;2023-05-10T01:20:04;2.30;;;2.20;;
50219;SDS011;36110;51.536;7.562;2023-05-10T01:28:52;4.50;;;4.10;;
50219;SDS011;36110;51.536;7.562;2023-05-10T01:31:33;3.90;;;2.75;;
50219;SDS011;36110;51.536;7.562;2023-05-10T01:34:16;2.33;;;2.13;;
50219;SDS011;36110;51.536;7.562;2023-05-10T01:36:45;5.90;;;3.95;;
50219;SDS011;36110;51.536;7.562;2023-05-10T01:39:24;2.20;;;2.10;;
50219;SDS011;36110;51.536;7.562;2023-05-10T01:42:08;5.82;;;4.63;;
50219;SDS011;36110;51.536;7.562;2023-05-10T01:47:31;5.47;;;4.30;;
50219;SDS011;36110;51.536;7.562;2023-05-10T01:50:04;5.93;;;4.85;;
50219;SDS011;36110;51.536;7.562;2023-05-10T01:52:33;2.20;;;2.10;;
50219;SDS011;36110;51.536;7.562;2023-05-10T01:55:04;3.13;;;2.90;;
50219;SDS011;36110;51.536;7.562;2023-05-10T01:57:34;5.20;;;4.75;;
50219;SDS011;36110;51.536;7.562;2023-05-10T02:00:03;5.57;;;4.95;;
50219;SDS011;36110;51.536;7.562;2023-05-10T02:02:30;2.90;;;2.70;;
50219;SDS011;36110;51.536;7.562;2023-05-10T02:04:58;2.15;;;2.00;;
50219;SDS011;36110;51.536;7.562;2023-05-10T02:07:24;5.97;;;5.20;;
50219;SDS011;36110;51.536;7.562;2023-05-10T02:09:49;2.00;;;1.90;;
50219;SDS011;36110;51.536;7.562;2023-05-10T02:12:15;3.30;;;3.05;;
50219;SDS011;36110;51.536;7.562;2023-05-10T02:14:41;2.30;;;2.20;;
50219;SDS011;36110;51.536;7.562;2023-05-10T02:17:07;2.25;;;2.15;;
50219;SDS011;36110;51.536;7.562;2023-05-10T02:19:34;2.30;;;2.15;;
50219;SDS011;36110;51.536;7.562;2023-05-10T02:22:00;2.85;;;2.63;;
50219;SDS011;36110;51.536;7.562;2023-05-10T02:24:26;2.70;;;2.50;;
50219;SDS011;36110;51.536;7.562;2023-05-10T02:26:53;2.53;;;2.38;;
50219;SDS011;36110;51.536;7.562;2023-05-10T02:29:20;7.97;;;6.07;;
50219;SDS011;36110;51.536;7.562;2023-05-10T02:32:05;2.35;;;2.22;;
50219;SDS011;36110;51.536;7.562;2023-05-10T02:34:31;2.63;;;2.42;;
50219;SDS011;36110;51.536;7.562;2023-05-10T02:36:56;2.20;;;2.10;;
50219;SDS011;36110;51.536;7.562;2023-05-10T02:39:22;2.10;;;2.00;;
50219;SDS011;36110;51.536;7.562;2023-05-10T02:41:49;2.97;;;2.08;;
50219;SDS011;36110;51.536;7.562;2023-05-10T02:44:16;2.50;;;2.30;;
50219;SDS011;36110;51.536;7.562;2023-05-10T02:46:42;3.08;;;2.33;;
50219;SDS011;36110;51.536;7.562;2023-05-10T02:49:08;2.10;;;1.90;;
50219;SDS011;36110;51.536;7.562;2023-05-10T02:51:34;2.28;;;2.10;;
50219;SDS011;36110;51.536;7.562;2023-05-10T02:54:01;2.28;;;1.40;;
50219;SDS011;36110;51.536;7.562;2023-05-10T02:56:35;2.22;;;2.13;;
50219;SDS011;36110;51.536;7.562;2023-05-10T02:59:01;2.00;;;1.75;;
50219;SDS011;36110;51.536;7.562;2023-05-10T03:01:26;2.10;;;2.00;;
50219;SDS011;36110;51.536;7.562;2023-05-10T03:03:52;1.77;;;1.67;;
50219;SDS011;36110;51.536;7.562;2023-05-10T03:06:17;3.25;;;2.20;;
50219;SDS011;36110;51.536;7.562;2023-05-10T03:08:43;2.40;;;2.20;;
50219;SDS011;36110;51.536;7.562;2023-05-10T03:14:07;2.13;;;2.00;;
50219;SDS011;36110;51.536;7.562;2023-05-10T03:19:14;1.90;;;1.80;;
50219;SDS011;36110;51.536;7.562;2023-05-10T03:21:43;2.08;;;1.88;;
50219;SDS011;36110;51.536;7.562;2023-05-10T03:24:12;2.38;;;2.17;;
50219;SDS011;36110;51.536;7.562;2023-05-10T03:26:40;1.77;;;1.67;;
50219;SDS011;36110;51.536;7.562;2023-05-10T03:29:08;2.00;;;1.90;;
50219;SDS011;36110;51.536;7.562;2023-05-10T03:31:34;1.80;;;1.70;;
50219;SDS011;36110;51.536;7.562;2023-05-10T03:33:59;2.40;;;1.80;;
50219;SDS011;36110;51.536;7.562;2023-05-10T03:36:24;1.88;;;1.77;;
50219;SDS011;36110;51.536;7.562;2023-05-10T03:38:50;1.80;;;1.70;;
50219;SDS011;36110;51.536;7.562;2023-05-10T03:41:15;3.22;;;2.92;;
50219;SDS011;36110;51.536;7.562;2023-05-10T03:43:41;4.50;;;3.42;;
50219;SDS011;36110;51.536;7.562;2023-05-10T03:46:06;1.80;;;1.70;;
50219;SDS011;36110;51.536;7.562;2023-05-10T03:48:31;2.05;;;1.90;;
50219;SDS011;36110;51.536;7.562;2023-05-10T03:50:57;1.85;;;1.75;;
50219;SDS011;36110;51.536;7.562;2023-05-10T03:53:22;1.80;;;1.70;;
50219;SDS011;36110;51.536;7.562;2023-05-10T03:55:48;1.70;;;1.60;;
50219;SDS011;36110;51.536;7.562;2023-05-10T03:58:13;1.80;;;1.70;;
50219;SDS011;36110;51.536;7.562;2023-05-10T04:00:38;1.98;;;1.88;;
50219;SDS011;36110;51.536;7.562;2023-05-10T04:03:08;2.00;;;1.90;;
50219;SDS011;36110;51.536;7.562;2023-05-10T04:05:37;1.90;;;1.80;;
50219;SDS011;36110;51.536;7.562;2023-05-10T04:08:02;1.75;;;1.65;;
50219;SDS011;36110;51.536;7.562;2023-05-10T04:10:28;1.80;;;1.70;;
50219;SDS011;36110;51.536;7.562;2023-05-10T04:12:53;1.55;;;1.45;;
50219;SDS011;36110;51.536;7.562;2023-05-10T04:15:19;1.80;;;1.70;;
50219;SDS011;36110;51.536;7.562;2023-05-10T04:17:44;1.60;;;1.50;;
50219;SDS011;36110;51.536;7.562;2023-05-10T04:20:10;1.63;;;1.52;;
50219;SDS011;36110;51.536;7.562;2023-05-10T04:22:36;1.80;;;1.70;;
50219;SDS011;36110;51.536;7.562;2023-05-10T04:25:01;1.88;;;1.77;;
50219;SDS011;36110;51.536;7.562;2023-05-10T04:27:26;1.63;;;1.52;;
50219;SDS011;36110;51.536;7.562;2023-05-10T04:29:52;1.75;;;1.65;;
50219;SDS011;36110;51.536;7.562;2023-05-10T04:32:17;2.13;;;1.90;;
50219;SDS011;36110;51.536;7.562;2023-05-10T04:34:43;1.80;;;1.70;;
50219;SDS011;36110;51.536;7.562;2023-05-10T04:37:08;1.77;;;1.67;;
50219;SDS011;36110;51.536;7.562;2023-05-10T04:39:33;1.80;;;1.70;;
50219;SDS011;36110;51.536;7.562;2023-05-10T04:42:00;1.92;;;1.83;;
50219;SDS011;36110;51.536;7.562;2023-05-10T04:44:25;1.63;;;1.52;;
50219;SDS011;36110;51.536;7.562;2023-05-10T04:46:51;7.78;;;6.88;;
50219;SDS011;36110;51.536;7.562;2023-05-10T04:49:16;1.50;;;1.42;;
50219;SDS011;36110;51.536;7.562;2023-05-10T04:51:42;1.60;;;1.50;;
50219;SDS011;36110;51.536;7.562;2023-05-10T04:54:08;2.38;;;2.17;;
50219;SDS011;36110;51.536;7.562;2023-05-10T04:56:33;1.90;;;1.80;;
50219;SDS011;36110;51.536;7.562;2023-05-10T04:58:58;2.20;;;2.05;;
50219;SDS011;36110;51.536;7.562;2023-05-10T05:01:24;2.00;;;1.80;;
50219;SDS011;36110;51.536;7.562;2023-05-10T05:03:49;8.55;;;7.07;;
50219;SDS011;36110;51.536;7.562;2023-05-10T05:06:14;1.85;;;1.70;;
50219;SDS011;36110;51.536;7.562;2023-05-10T05:08:41;2.03;;;1.92;;
50219;SDS011;36110;51.536;7.562;2023-05-10T05:11:06;2.08;;;1.95;;
50219;SDS011;36110;51.536;7.562;2023-05-10T05:13:31;1.90;;;1.80;;
50219;SDS011;36110;51.536;7.562;2023-05-10T05:15:57;3.90;;;3.53;;
50219;SDS011;36110;51.536;7.562;2023-05-10T05:18:22;4.00;;;3.60;;
50219;SDS011;36110;51.536;7.562;2023-05-10T05:20:47;1.98;;;1.88;;
50219;SDS011;36110;51.536;7.562;2023-05-10T05:23:13;2.15;;;2.03;;
50219;SDS011;36110;51.536;7.562;2023-05-10T05:25:38;1.80;;;1.70;;
50219;SDS011;36110;51.536;7.562;2023-05-10T05:28:03;20.33;;;15.18;;
50219;SDS011;36110;51.536;7.562;2023-05-10T05:30:29;16.85;;;12.82;;
50219;SDS011;36110;51.536;7.562;2023-05-10T05:32:54;14.20;;;11.57;;
50219;SDS011;36110;51.536;7.562;2023-05-10T05:35:19;12.73;;;11.00;;
50219;SDS011;36110;51.536;7.562;2023-05-10T05:37:45;14.55;;;11.32;;
50219;SDS011;36110;51.536;7.562;2023-05-10T05:40:12;13.98;;;11.82;;
50219;SDS011;36110;51.536;7.562;2023-05-10T05:42:37;14.10;;;11.43;;
50219;SDS011;36110;51.536;7.562;2023-05-10T05:45:03;16.60;;;12.05;;
50219;SDS011;36110;51.536;7.562;2023-05-10T05:47:29;22.77;;;16.58;;
50219;SDS011;36110;51.536;7.562;2023-05-10T05:49:54;16.05;;;12.07;;
50219;SDS011;36110;51.536;7.562;2023-05-10T05:52:20;27.25;;;19.98;;
50219;SDS011;36110;51.536;7.562;2023-05-10T05:54:46;15.55;;;11.73;;
50219;SDS011;36110;51.536;7.562;2023-05-10T05:57:11;18.58;;;12.50;;
50219;SDS011;36110;51.536;7.562;2023-05-10T05:59:37;19.13;;;15.20;;
50219;SDS011;36110;51.536;7.562;2023-05-10T06:02:06;13.93;;;10.57;;
50219;SDS011;36110;51.536;7.562;2023-05-10T06:04:32;12.55;;;10.98;;
50219;SDS011;36110;51.536;7.562;2023-05-10T06:06:57;11.35;;;10.15;;
50219;SDS011;36110;51.536;7.562;2023-05-10T06:09:23;11.95;;;10.30;;
50219;SDS011;36110;51.536;7.562;2023-05-10T06:11:49;12.23;;;10.45;;
50219;SDS011;36110;51.536;7.562;2023-05-10T06:14:14;14.48;;;10.68;;
50219;SDS011;36110;51.536;7.562;2023-05-10T06:16:40;14.05;;;11.30;;
50219;SDS011;36110;51.536;7.562;2023-05-10T06:19:05;17.55;;;13.68;;
50219;SDS011;36110;51.536;7.562;2023-05-10T06:21:30;14.75;;;11.85;;
50219;SDS011;36110;51.536;7.562;2023-05-10T06:23:56;12.60;;;9.98;;
50219;SDS011;36110;51.536;7.562;2023-05-10T06:26:21;26.77;;;20.98;;
50219;SDS011;36110;51.536;7.562;2023-05-10T06:28:47;32.97;;;23.05;;
50219;SDS011;36110;51.536;7.562;2023-05-10T06:31:12;34.15;;;23.42;;
50219;SDS011;36110;51.536;7.562;2023-05-10T06:33:37;34.25;;;24.10;;
50219;SDS011;36110;51.536;7.562;2023-05-10T06:36:02;34.45;;;24.10;;
50219;SDS011;36110;51.536;7.562;2023-05-10T06:38:28;35.00;;;24.67;;
50219;SDS011;36110;51.536;7.562;2023-05-10T06:40:54;35.38;;;24.80;;
50219;SDS011;36110;51.536;7.562;2023-05-10T06:43:19;36.90;;;24.50;;
50219;SDS011;36110;51.536;7.562;2023-05-10T06:45:44;33.47;;;24.63;;
50219;SDS011;36110;51.536;7.562;2023-05-10T06:48:10;38.17;;;24.60;;
50219;SDS011;36110;51.536;7.562;2023-05-10T06:50:35;31.33;;;23.77;;
50219;SDS011;36110;51.536;7.562;2023-05-10T06:53:01;34.28;;;25.45;;
50219;SDS011;36110;51.536;7.562;2023-05-10T06:55:29;33.25;;;24.40;;
50219;SDS011;36110;51.536;7.562;2023-05-10T06:57:54;34.60;;;25.42;;
50219;SDS011;36110;51.536;7.562;2023-05-10T07:00:20;34.67;;;23.98;;
50219;SDS011;36110;51.536;7.562;2023-05-10T07:02:45;35.10;;;25.88;;
50219;SDS011;36110;51.536;7.562;2023-05-10T07:05:11;30.67;;;23.00;;
50219;SDS011;36110;51.536;7.562;2023-05-10T07:07:37;31.08;;;23.90;;
50219;SDS011;36110;51.536;7.562;2023-05-10T07:10:02;35.17;;;25.58;;
50219;SDS011;36110;51.536;7.562;2023-05-10T07:12:28;39.65;;;27.33;;
50219;SDS011;36110;51.536;7.562;2023-05-10T07:14:53;35.83;;;24.05;;
50219;SDS011;36110;51.536;7.562;2023-05-10T07:17:18;33.17;;;22.90;;
50219;SDS011;36110;51.536;7.562;2023-05-10T07:19:44;35.85;;;25.35;;
50219;SDS011;36110;51.536;7.562;2023-05-10T07:22:09;36.40;;;25.70;;
50219;SDS011;36110;51.536;7.562;2023-05-10T07:24:35;37.20;;;27.20;;
50219;SDS011;36110;51.536;7.562;2023-05-10T07:27:00;31.77;;;23.50;;
50219;SDS011;36110;51.536;7.562;2023-05-10T07:29:25;32.55;;;23.65;;
50219;SDS011;36110;51.536;7.562;2023-05-10T07:31:51;31.92;;;22.95;;
50219;SDS011;36110;51.536;7.562;2023-05-10T07:34:16;35.17;;;24.83;;
50219;SDS011;36110;51.536;7.562;2023-05-10T07:36:42;30.40;;;22.73;;
50219;SDS011;36110;51.536;7.562;2023-05-10T07:39:07;29.30;;;23.20;;
50219;SDS011;36110;51.536;7.562;2023-05-10T07:41:35;26.95;;;22.02;;
50219;SDS011;36110;51.536;7.562;2023-05-10T07:44:02;28.98;;;21.48;;
50219;SDS011;36110;51.536;7.562;2023-05-10T07:46:28;25.67;;;21.38;;
50219;SDS011;36110;51.536;7.562;2023-05-10T07:48:53;24.95;;;20.38;;
50219;SDS011;36110;51.536;7.562;2023-05-10T07:51:19;30.15;;;22.05;;
50219;SDS011;36110;51.536;7.562;2023-05-10T07:53:44;35.55;;;26.80;;
50219;SDS011;36110;51.536;7.562;2023-05-10T07:56:22;28.02;;;20.38;;
50219;SDS011;36110;51.536;7.562;2023-05-10T07:59:00;26.67;;;20.95;;
50219;SDS011;36110;51.536;7.562;2023-05-10T08:01:30;23.02;;;19.50;;
50219;SDS011;36110;51.536;7.562;2023-05-10T08:03:56;29.70;;;22.27;;
50219;SDS011;36110;51.536;7.562;2023-05-10T08:06:21;24.88;;;20.17;;
50219;SDS011;36110;51.536;7.562;2023-05-10T08:08:47;30.90;;;23.17;;
50219;SDS011;36110;51.536;7.562;2023-05-10T08:11:18;27.92;;;21.17;;
50219;SDS011;36110;51.536;7.562;2023-05-10T08:13:44;25.58;;;20.15;;
50219;SDS011;36110;51.536;7.562;2023-05-10T08:16:09;24.88;;;19.70;;
50219;SDS011;36110;51.536;7.562;2023-05-10T08:18:35;25.67;;;21.00;;
50219;SDS011;36110;51.536;7.562;2023-05-10T08:21:00;27.95;;;21.08;;
50219;SDS011;36110;51.536;7.562;2023-05-10T08:23:26;26.48;;;20.58;;
50219;SDS011;36110;51.536;7.562;2023-05-10T08:25:51;26.00;;;20.83;;
50219;SDS011;36110;51.536;7.562;2023-05-10T08:28:16;24.52;;;19.38;;
50219;SDS011;36110;51.536;7.562;2023-05-10T08:30:42;30.10;;;20.10;;
50219;SDS011;36110;51.536;7.562;2023-05-10T08:33:07;27.35;;;20.15;;
50219;SDS011;36110;51.536;7.562;2023-05-10T08:35:32;27.25;;;20.10;;
50219;SDS011;36110;51.536;7.562;2023-05-10T08:38:00;25.90;;;19.48;;
50219;SDS011;36110;51.536;7.562;2023-05-10T08:40:25;23.45;;;20.00;;
50219;SDS011;36110;51.536;7.562;2023-05-10T08:42:53;29.35;;;19.73;;
50219;SDS011;36110;51.536;7.562;2023-05-10T08:45:22;24.88;;;19.17;;
50219;SDS011;36110;51.536;7.562;2023-05-10T08:47:48;25.67;;;18.60;;
50219;SDS011;36110;51.536;7.562;2023-05-10T08:50:14;20.60;;;17.55;;
50219;SDS011;36110;51.536;7.562;2023-05-10T08:52:40;22.02;;;17.98;;
50219;SDS011;36110;51.536;7.562;2023-05-10T08:55:06;22.85;;;17.60;;
50219;SDS011;36110;51.536;7.562;2023-05-10T08:57:32;23.05;;;18.45;;
50219;SDS011;36110;51.536;7.562;2023-05-10T08:59:57;24.50;;;18.55;;
50219;SDS011;36110;51.536;7.562;2023-05-10T09:02:23;24.63;;;18.42;;
50219;SDS011;36110;51.536;7.562;2023-05-10T09:04:49;24.42;;;18.83;;
50219;SDS011;36110;51.536;7.562;2023-05-10T09:07:14;26.55;;;19.83;;
50219;SDS011;36110;51.536;7.562;2023-05-10T09:09:40;26.05;;;20.10;;
50219;SDS011;36110;51.536;7.562;2023-05-10T09:12:05;33.10;;;20.58;;
50219;SDS011;36110;51.536;7.562;2023-05-10T09:14:31;21.10;;;18.08;;
50219;SDS011;36110;51.536;7.562;2023-05-10T09:17:00;25.52;;;19.05;;
50219;SDS011;36110;51.536;7.562;2023-05-10T09:19:25;22.40;;;17.63;;
50219;SDS011;36110;51.536;7.562;2023-05-10T09:21:50;22.90;;;17.25;;
50219;SDS011;36110;51.536;7.562;2023-05-10T09:24:16;24.42;;;18.65;;
50219;SDS011;36110;51.536;7.562;2023-05-10T09:26:48;27.98;;;18.00;;
50219;SDS011;36110;51.536;7.562;2023-05-10T09:29:13;25.52;;;18.73;;
50219;SDS011;36110;51.536;7.562;2023-05-10T09:31:49;24.08;;;17.80;;
50219;SDS011;36110;51.536;7.562;2023-05-10T09:34:20;23.40;;;17.58;;
50219;SDS011;36110;51.536;7.562;2023-05-10T09:36:56;20.38;;;17.02;;
50219;SDS011;36110;51.536;7.562;2023-05-10T09:39:44;25.17;;;17.80;;
50219;SDS011;36110;51.536;7.562;2023-05-10T09:42:09;22.40;;;17.38;;
50219;SDS011;36110;51.536;7.562;2023-05-10T09:44:35;25.67;;;18.63;;
50219;SDS011;36110;51.536;7.562;2023-05-10T09:47:00;21.23;;;17.13;;
50219;SDS011;36110;51.536;7.562;2023-05-10T09:49:26;21.30;;;17.08;;
50219;SDS011;36110;51.536;7.562;2023-05-10T09:52:05;20.58;;;16.83;;
50219;SDS011;36110;51.536;7.562;2023-05-10T09:54:32;22.75;;;17.10;;
50219;SDS011;36110;51.536;7.562;2023-05-10T09:56:58;23.25;;;16.48;;
50219;SDS011;36110;51.536;7.562;2023-05-10T09:59:26;19.33;;;16.00;;
50219;SDS011;36110;51.536;7.562;2023-05-10T10:01:53;21.38;;;16.88;;
50219;SDS011;36110;51.536;7.562;2023-05-10T10:04:21;24.63;;;15.68;;
50219;SDS011;36110;51.536;7.562;2023-05-10T10:06:46;20.08;;;16.02;;
50219;SDS011;36110;51.536;7.562;2023-05-10T10:09:23;19.58;;;15.23;;
50219;SDS011;36110;51.536;7.562;2023-05-10T10:11:49;19.80;;;15.68;;
50219;SDS011;36110;51.536;7.562;2023-05-10T10:14:14;19.13;;;15.27;;
50219;SDS011;36110;51.536;7.562;2023-05-10T10:16:42;19.15;;;14.00;;
50219;SDS011;36110;51.536;7.562;2023-05-10T10:19:08;19.17;;;15.32;;
50219;SDS011;36110;51.536;7.562;2023-05-10T10:21:33;17.35;;;13.27;;
50219;SDS011;36110;51.536;7.562;2023-05-10T10:23:58;17.92;;;14.68;;
50219;SDS011;36110;51.536;7.562;2023-05-10T10:26:23;19.33;;;15.23;;
50219;SDS011;36110;51.536;7.562;2023-05-10T10:31:24;16.92;;;13.55;;
50219;SDS011;36110;51.536;7.562;2023-05-10T10:36:15;14.90;;;12.10;;
50219;SDS011;36110;51.536;7.562;2023-05-10T10:49:45;12.45;;;10.57;;
50219;SDS011;36110;51.536;7.562;2023-05-10T10:52:28;18.63;;;13.85;;
50219;SDS011;36110;51.536;7.562;2023-05-10T10:57:43;13.70;;;10.77;;
50219;SDS011;36110;51.536;7.562;2023-05-10T11:02:52;15.52;;;12.77;;
50219;SDS011;36110;51.536;7.562;2023-05-10T11:05:26;11.80;;;8.52;;
50219;SDS011;36110;51.536;7.562;2023-05-10T11:08:01;14.80;;;13.18;;
50219;SDS011;36110;51.536;7.562;2023-05-10T11:10:32;13.23;;;10.02;;
50219;SDS011;36110;51.536;7.562;2023-05-10T11:17:58;11.43;;;9.65;;
50219;SDS011;36110;51.536;7.562;2023-05-10T11:20:27;15.20;;;10.77;;
50219;SDS011;36110;51.536;7.562;2023-05-10T11:22:58;15.27;;;12.35;;
50219;SDS011;36110;51.536;7.562;2023-05-10T11:25:26;16.38;;;13.15;;
50219;SDS011;36110;51.536;7.562;2023-05-10T11:27:53;16.85;;;14.32;;
50219;SDS011;36110;51.536;7.562;2023-05-10T11:30:18;18.88;;;14.15;;
50219;SDS011;36110;51.536;7.562;2023-05-10T11:32:44;16.52;;;12.48;;
50219;SDS011;36110;51.536;7.562;2023-05-10T11:35:10;17.23;;;12.98;;
50219;SDS011;36110;51.536;7.562;2023-05-10T11:37:36;16.75;;;12.88;;
50219;SDS011;36110;51.536;7.562;2023-05-10T11:40:02;16.20;;;12.23;;
50219;SDS011;36110;51.536;7.562;2023-05-10T11:42:28;15.52;;;12.52;;
50219;SDS011;36110;51.536;7.562;2023-05-10T11:44:53;15.25;;;12.80;;
50219;SDS011;36110;51.536;7.562;2023-05-10T11:47:19;14.63;;;11.70;;
50219;SDS011;36110;51.536;7.562;2023-05-10T11:49:45;14.23;;;12.52;;
50219;SDS011;36110;51.536;7.562;2023-05-10T11:52:10;16.70;;;12.50;;
50219;SDS011;36110;51.536;7.562;2023-05-10T11:55:11;17.35;;;12.23;;
50219;SDS011;36110;51.536;7.562;2023-05-10T11:57:30;15.23;;;12.23;;
50219;SDS011;36110;51.536;7.562;2023-05-10T11:59:56;17.52;;;12.65;;
50219;SDS011;36110;51.536;7.562;2023-05-10T12:02:22;16.77;;;13.50;;
50219;SDS011;36110;51.536;7.562;2023-05-10T12:04:48;15.52;;;12.82;;
50219;SDS011;36110;51.536;7.562;2023-05-10T12:07:13;14.32;;;12.48;;
50219;SDS011;36110;51.536;7.562;2023-05-10T12:10:01;16.30;;;12.88;;
50219;SDS011;36110;51.536;7.562;2023-05-10T12:12:44;15.15;;;12.90;;
50219;SDS011;36110;51.536;7.562;2023-05-10T12:15:11;17.25;;;13.80;;
50219;SDS011;36110;51.536;7.562;2023-05-10T12:17:40;15.38;;;12.80;;
50219;SDS011;36110;51.536;7.562;2023-05-10T12:20:12;17.13;;;11.65;;
50219;SDS011;36110;51.536;7.562;2023-05-10T12:22:45;14.75;;;12.75;;
50219;SDS011;36110;51.536;7.562;2023-05-10T12:25:14;14.52;;;10.77;;
50219;SDS011;36110;51.536;7.562;2023-05-10T12:27:40;15.07;;;11.85;;
50219;SDS011;36110;51.536;7.562;2023-05-10T12:30:06;14.82;;;11.73;;
50219;SDS011;36110;51.536;7.562;2023-05-10T12:32:41;15.00;;;11.52;;
50219;SDS011;36110;51.536;7.562;2023-05-10T12:35:07;15.10;;;11.93;;
50219;SDS011;36110;51.536;7.562;2023-05-10T12:37:38;17.73;;;10.90;;
50219;SDS011;36110;51.536;7.562;2023-05-10T12:40:07;14.20;;;11.20;;
50219;SDS011;36110;51.536;7.562;2023-05-10T12:42:37;12.73;;;11.43;;
50219;SDS011;36110;51.536;7.562;2023-05-10T12:45:04;15.48;;;11.68;;
50219;SDS011;36110;51.536;7.562;2023-05-10T12:47:30;14.05;;;11.38;;
50219;SDS011;36110;51.536;7.562;2023-05-10T12:49:56;15.18;;;10.90;;
50219;SDS011;36110;51.536;7.562;2023-05-10T12:52:21;13.25;;;11.38;;
50219;SDS011;36110;51.536;7.562;2023-05-10T12:54:46;15.65;;;11.05;;
50219;SDS011;36110;51.536;7.562;2023-05-10T12:57:12;14.48;;;10.75;;
50219;SDS011;36110;51.536;7.562;2023-05-10T12:59:38;12.38;;;10.65;;
50219;SDS011;36110;51.536;7.562;2023-05-10T13:02:06;10.23;;;8.25;;
50219;SDS011;36110;51.536;7.562;2023-05-10T13:04:31;9.98;;;8.70;;
50219;SDS011;36110;51.536;7.562;2023-05-10T13:06:57;12.75;;;8.93;;
50219;SDS011;36110;51.536;7.562;2023-05-10T13:09:24;13.93;;;10.13;;
50219;SDS011;36110;51.536;7.562;2023-05-10T13:11:50;11.27;;;9.80;;
50219;SDS011;36110;51.536;7.562;2023-05-10T13:14:15;14.98;;;10.43;;
50219;SDS011;36110;51.536;7.562;2023-05-10T13:16:41;12.27;;;10.68;;
50219;SDS011;36110;51.536;7.562;2023-05-10T13:19:06;13.00;;;10.95;;
50219;SDS011;36110;51.536;7.562;2023-05-10T13:21:31;12.90;;;9.82;;
50219;SDS011;36110;51.536;7.562;2023-05-10T13:23:59;14.05;;;10.55;;
50219;SDS011;36110;51.536;7.562;2023-05-10T13:26:26;11.05;;;9.05;;
50219;SDS011;36110;51.536;7.562;2023-05-10T13:28:51;13.32;;;10.48;;
50219;SDS011;36110;51.536;7.562;2023-05-10T13:31:17;10.80;;;9.45;;
50219;SDS011;36110;51.536;7.562;2023-05-10T13:33:42;12.38;;;9.50;;
50219;SDS011;36110;51.536;7.562;2023-05-10T13:36:07;10.13;;;8.73;;
50219;SDS011;36110;51.536;7.562;2023-05-10T13:38:33;10.95;;;8.63;;
50219;SDS011;36110;51.536;7.562;2023-05-10T13:40:58;11.73;;;8.45;;
50219;SDS011;36110;51.536;7.562;2023-05-10T13:43:23;12.55;;;8.10;;
50219;SDS011;36110;51.536;7.562;2023-05-10T13:45:49;11.18;;;7.95;;
50219;SDS011;36110;51.536;7.562;2023-05-10T13:48:17;13.75;;;8.48;;
50219;SDS011;36110;51.536;7.562;2023-05-10T13:50:42;8.90;;;7.95;;
50219;SDS011;36110;51.536;7.562;2023-05-10T13:53:08;10.40;;;7.53;;
50219;SDS011;36110;51.536;7.562;2023-05-10T13:55:33;11.02;;;8.13;;
50219;SDS011;36110;51.536;7.562;2023-05-10T13:57:58;12.55;;;7.07;;
50219;SDS011;36110;51.536;7.562;2023-05-10T14:00:26;9.60;;;7.45;;
50219;SDS011;36110;51.536;7.562;2023-05-10T14:02:52;7.45;;;6.55;;
50219;SDS011;36110;51.536;7.562;2023-05-10T14:05:17;8.70;;;5.97;;
50219;SDS011;36110;51.536;7.562;2023-05-10T14:07:42;8.32;;;6.20;;
50219;SDS011;36110;51.536;7.562;2023-05-10T14:10:11;8.63;;;6.18;;
50219;SDS011;36110;51.536;7.562;2023-05-10T14:12:36;6.20;;;5.60;;
50219;SDS011;36110;51.536;7.562;2023-05-10T14:15:01;6.65;;;5.80;;
50219;SDS011;36110;51.536;7.562;2023-05-10T14:17:30;9.98;;;7.35;;
50219;SDS011;36110;51.536;7.562;2023-05-10T14:19:55;7.03;;;5.60;;
50219;SDS011;36110;51.536;7.562;2023-05-10T14:22:23;7.72;;;5.60;;
50219;SDS011;36110;51.536;7.562;2023-05-10T14:24:48;8.85;;;6.20;;
50219;SDS011;36110;51.536;7.562;2023-05-10T14:27:14;6.38;;;5.00;;
50219;SDS011;36110;51.536;7.562;2023-05-10T14:29:40;7.82;;;6.25;;
50219;SDS011;36110;51.536;7.562;2023-05-10T14:32:05;5.70;;;5.10;;
50219;SDS011;36110;51.536;7.562;2023-05-10T14:34:30;7.70;;;5.90;;
50219;SDS011;36110;51.536;7.562;2023-05-10T14:36:56;5.57;;;5.07;;
50219;SDS011;36110;51.536;7.562;2023-05-10T14:39:21;5.68;;;4.70;;
50219;SDS011;36110;51.536;7.562;2023-05-10T14:41:50;4.93;;;4.45;;
50219;SDS011;36110;51.536;7.562;2023-05-10T14:44:23;5.00;;;4.50;;
50219;SDS011;36110;51.536;7.562;2023-05-10T14:46:49;6.45;;;4.78;;
50219;SDS011;36110;51.536;7.562;2023-05-10T14:49:14;8.60;;;5.30;;
50219;SDS011;36110;51.536;7.562;2023-05-10T14:51:40;8.38;;;5.80;;
50219;SDS011;36110;51.536;7.562;2023-05-10T14:54:05;9.95;;;6.60;;
50219;SDS011;36110;51.536;7.562;2023-05-10T14:56:31;9.68;;;6.57;;
50219;SDS011;36110;51.536;7.562;2023-05-10T14:58:56;10.10;;;5.00;;
50219;SDS011;36110;51.536;7.562;2023-05-10T15:01:22;10.32;;;5.53;;
50219;SDS011;36110;51.536;7.562;2023-05-10T15:03:50;6.32;;;5.28;;
50219;SDS011;36110;51.536;7.562;2023-05-10T15:06:16;7.35;;;5.88;;
50219;SDS011;36110;51.536;7.562;2023-05-10T15:08:42;7.60;;;5.45;;
50219;SDS011;36110;51.536;7.562;2023-05-10T15:11:07;5.75;;;4.88;;
50219;SDS011;36110;51.536;7.562;2023-05-10T15:13:32;8.05;;;4.82;;